sensor_id;sensor_type;location;lat;lon;timestamp;P1;durP1;ratioP1;P2;durP2;ratioP2
58950;SDS011;44730;53.158;6.398;2023-04-10T00:02:25;35.67;;;24.50;;
58950;SDS011;44730;53.158;6.398;2023-04-10T00:04:51;38.13;;;24.58;;
58950;SDS011;44730;53.158;6.398;2023-04-10T00:07:16;37.05;;;25.05;;
58950;SDS011;44730;53.158;6.398;2023-04-10T00:09:42;36.97;;;25.50;;
58950;SDS011;44730;53.158;6.398;2023-04-10T00:12:08;37.17;;;25.13;;
58950;SDS011;44730;53.158;6.398;2023-04-10T00:14:35;37.10;;;25.60;;
58950;SDS011;44730;53.158;6.398;2023-04-10T00:17:01;35.67;;;24.95;;
58950;SDS011;44730;53.158;6.398;2023-04-10T00:19:27;36.75;;;25.42;;
58950;SDS011;44730;53.158;6.398;2023-04-10T00:21:54;37.42;;;26.13;;
58950;SDS011;44730;53.158;6.398;2023-04-10T00:24:20;36.53;;;25.77;;
58950;SDS011;44730;53.158;6.398;2023-04-10T00:26:45;36.15;;;26.80;;
58950;SDS011;44730;53.158;6.398;2023-04-10T00:29:11;38.55;;;27.08;;
58950;SDS011;44730;53.158;6.398;2023-04-10T00:31:37;42.42;;;27.65;;
58950;SDS011;44730;53.158;6.398;2023-04-10T00:34:03;36.83;;;26.70;;
58950;SDS011;44730;53.158;6.398;2023-04-10T00:36:28;36.17;;;26.52;;
58950;SDS011;44730;53.158;6.398;2023-04-10T00:38:55;38.92;;;26.98;;
58950;SDS011;44730;53.158;6.398;2023-04-10T00:41:21;43.63;;;27.40;;
58950;SDS011;44730;53.158;6.398;2023-04-10T00:43:48;40.92;;;27.27;;
58950;SDS011;44730;53.158;6.398;2023-04-10T00:46:13;40.55;;;27.95;;
58950;SDS011;44730;53.158;6.398;2023-04-10T00:48:39;39.78;;;27.58;;
58950;SDS011;44730;53.158;6.398;2023-04-10T00:51:05;43.55;;;29.77;;
58950;SDS011;44730;53.158;6.398;2023-04-10T00:53:31;41.05;;;28.15;;
58950;SDS011;44730;53.158;6.398;2023-04-10T00:55:57;38.75;;;27.70;;
58950;SDS011;44730;53.158;6.398;2023-04-10T00:58:26;39.00;;;27.83;;
58950;SDS011;44730;53.158;6.398;2023-04-10T01:00:52;39.53;;;28.65;;
58950;SDS011;44730;53.158;6.398;2023-04-10T01:03:18;45.22;;;30.02;;
58950;SDS011;44730;53.158;6.398;2023-04-10T01:11:04;45.33;;;31.33;;
58950;SDS011;44730;53.158;6.398;2023-04-10T01:13:52;43.42;;;30.20;;
58950;SDS011;44730;53.158;6.398;2023-04-10T01:16:30;45.38;;;30.15;;
58950;SDS011;44730;53.158;6.398;2023-04-10T01:19:10;44.22;;;31.23;;
58950;SDS011;44730;53.158;6.398;2023-04-10T01:21:49;45.75;;;31.40;;
58950;SDS011;44730;53.158;6.398;2023-04-10T01:29:36;46.58;;;33.30;;
58950;SDS011;44730;53.158;6.398;2023-04-10T01:32:13;43.38;;;31.25;;
58950;SDS011;44730;53.158;6.398;2023-04-10T01:34:48;44.78;;;32.33;;
58950;SDS011;44730;53.158;6.398;2023-04-10T01:37:19;44.95;;;32.60;;
58950;SDS011;44730;53.158;6.398;2023-04-10T01:39:58;51.03;;;34.30;;
58950;SDS011;44730;53.158;6.398;2023-04-10T01:42:27;49.95;;;34.72;;
58950;SDS011;44730;53.158;6.398;2023-04-10T01:44:57;47.63;;;34.20;;
58950;SDS011;44730;53.158;6.398;2023-04-10T01:47:25;49.78;;;34.40;;
58950;SDS011;44730;53.158;6.398;2023-04-10T01:49:52;50.35;;;35.83;;
58950;SDS011;44730;53.158;6.398;2023-04-10T01:52:19;46.33;;;34.80;;
58950;SDS011;44730;53.158;6.398;2023-04-10T01:54:46;51.58;;;36.13;;
58950;SDS011;44730;53.158;6.398;2023-04-10T01:57:13;51.50;;;36.58;;
58950;SDS011;44730;53.158;6.398;2023-04-10T01:59:40;49.67;;;35.75;;
58950;SDS011;44730;53.158;6.398;2023-04-10T02:02:06;48.78;;;36.97;;
58950;SDS011;44730;53.158;6.398;2023-04-10T02:04:35;50.05;;;35.83;;
58950;SDS011;44730;53.158;6.398;2023-04-10T02:07:02;48.08;;;36.03;;
58950;SDS011;44730;53.158;6.398;2023-04-10T02:12:08;50.55;;;36.30;;
58950;SDS011;44730;53.158;6.398;2023-04-10T02:14:37;49.40;;;36.58;;
58950;SDS011;44730;53.158;6.398;2023-04-10T02:17:08;49.58;;;35.95;;
58950;SDS011;44730;53.158;6.398;2023-04-10T02:19:44;55.67;;;37.53;;
58950;SDS011;44730;53.158;6.398;2023-04-10T02:22:12;53.80;;;36.47;;
58950;SDS011;44730;53.158;6.398;2023-04-10T02:24:40;49.20;;;35.00;;
58950;SDS011;44730;53.158;6.398;2023-04-10T02:27:06;49.25;;;36.72;;
58950;SDS011;44730;53.158;6.398;2023-04-10T02:29:32;48.97;;;36.92;;
58950;SDS011;44730;53.158;6.398;2023-04-10T02:31:58;52.10;;;36.90;;
58950;SDS011;44730;53.158;6.398;2023-04-10T02:34:25;51.60;;;37.65;;
58950;SDS011;44730;53.158;6.398;2023-04-10T02:36:51;48.83;;;35.90;;
58950;SDS011;44730;53.158;6.398;2023-04-10T02:39:18;50.95;;;36.72;;
58950;SDS011;44730;53.158;6.398;2023-04-10T02:41:44;48.78;;;37.10;;
58950;SDS011;44730;53.158;6.398;2023-04-10T02:44:11;52.00;;;36.95;;
58950;SDS011;44730;53.158;6.398;2023-04-10T02:46:37;50.42;;;35.90;;
58950;SDS011;44730;53.158;6.398;2023-04-10T02:49:02;54.53;;;38.90;;
58950;SDS011;44730;53.158;6.398;2023-04-10T02:51:28;52.42;;;37.67;;
58950;SDS011;44730;53.158;6.398;2023-04-10T02:53:55;52.83;;;38.17;;
58950;SDS011;44730;53.158;6.398;2023-04-10T02:56:20;53.80;;;38.20;;
58950;SDS011;44730;53.158;6.398;2023-04-10T02:58:46;51.22;;;37.90;;
58950;SDS011;44730;53.158;6.398;2023-04-10T03:01:12;55.70;;;39.30;;
58950;SDS011;44730;53.158;6.398;2023-04-10T03:03:38;53.22;;;37.95;;
58950;SDS011;44730;53.158;6.398;2023-04-10T03:06:03;53.88;;;38.58;;
58950;SDS011;44730;53.158;6.398;2023-04-10T03:08:30;53.05;;;37.72;;
58950;SDS011;44730;53.158;6.398;2023-04-10T03:10:55;52.95;;;38.47;;
58950;SDS011;44730;53.158;6.398;2023-04-10T03:13:21;58.42;;;40.60;;
58950;SDS011;44730;53.158;6.398;2023-04-10T03:15:50;49.67;;;37.25;;
58950;SDS011;44730;53.158;6.398;2023-04-10T03:18:15;52.97;;;37.25;;
58950;SDS011;44730;53.158;6.398;2023-04-10T03:20:41;62.25;;;40.00;;
58950;SDS011;44730;53.158;6.398;2023-04-10T03:23:07;54.60;;;38.42;;
58950;SDS011;44730;53.158;6.398;2023-04-10T03:25:33;58.70;;;38.85;;
58950;SDS011;44730;53.158;6.398;2023-04-10T03:27:59;52.17;;;37.17;;
58950;SDS011;44730;53.158;6.398;2023-04-10T03:30:24;52.33;;;38.08;;
58950;SDS011;44730;53.158;6.398;2023-04-10T03:32:50;57.20;;;37.92;;
58950;SDS011;44730;53.158;6.398;2023-04-10T03:35:16;50.25;;;37.53;;
58950;SDS011;44730;53.158;6.398;2023-04-10T03:37:41;52.55;;;37.15;;
58950;SDS011;44730;53.158;6.398;2023-04-10T03:40:07;53.20;;;37.80;;
58950;SDS011;44730;53.158;6.398;2023-04-10T03:42:34;54.92;;;37.33;;
58950;SDS011;44730;53.158;6.398;2023-04-10T03:45:00;53.58;;;37.35;;
58950;SDS011;44730;53.158;6.398;2023-04-10T03:47:28;49.58;;;36.25;;
58950;SDS011;44730;53.158;6.398;2023-04-10T03:49:58;52.30;;;37.05;;
58950;SDS011;44730;53.158;6.398;2023-04-10T03:52:24;51.58;;;35.65;;
58950;SDS011;44730;53.158;6.398;2023-04-10T03:54:52;49.63;;;36.03;;
58950;SDS011;44730;53.158;6.398;2023-04-10T03:57:18;50.80;;;35.00;;
58950;SDS011;44730;53.158;6.398;2023-04-10T03:59:48;52.58;;;36.67;;
58950;SDS011;44730;53.158;6.398;2023-04-10T04:02:14;51.75;;;34.50;;
58950;SDS011;44730;53.158;6.398;2023-04-10T04:04:40;53.80;;;36.35;;
58950;SDS011;44730;53.158;6.398;2023-04-10T04:07:05;52.08;;;36.30;;
58950;SDS011;44730;53.158;6.398;2023-04-10T04:09:31;48.08;;;34.17;;
58950;SDS011;44730;53.158;6.398;2023-04-10T04:11:57;49.08;;;35.78;;
58950;SDS011;44730;53.158;6.398;2023-04-10T04:14:23;51.13;;;35.70;;
58950;SDS011;44730;53.158;6.398;2023-04-10T04:16:48;51.03;;;35.35;;
58950;SDS011;44730;53.158;6.398;2023-04-10T04:19:14;50.80;;;35.35;;
58950;SDS011;44730;53.158;6.398;2023-04-10T04:21:40;46.80;;;34.33;;
58950;SDS011;44730;53.158;6.398;2023-04-10T04:24:06;49.38;;;34.45;;
58950;SDS011;44730;53.158;6.398;2023-04-10T04:26:32;51.75;;;34.42;;
58950;SDS011;44730;53.158;6.398;2023-04-10T04:28:57;48.38;;;34.70;;
58950;SDS011;44730;53.158;6.398;2023-04-10T04:31:23;49.22;;;34.58;;
58950;SDS011;44730;53.158;6.398;2023-04-10T04:33:49;49.13;;;34.55;;
58950;SDS011;44730;53.158;6.398;2023-04-10T04:36:21;50.80;;;35.10;;
58950;SDS011;44730;53.158;6.398;2023-04-10T04:38:46;50.20;;;34.95;;
58950;SDS011;44730;53.158;6.398;2023-04-10T04:41:12;48.10;;;34.20;;
58950;SDS011;44730;53.158;6.398;2023-04-10T04:43:38;49.47;;;34.92;;
58950;SDS011;44730;53.158;6.398;2023-04-10T04:46:03;50.10;;;34.22;;
58950;SDS011;44730;53.158;6.398;2023-04-10T04:48:29;48.10;;;34.50;;
58950;SDS011;44730;53.158;6.398;2023-04-10T04:50:55;49.50;;;35.55;;
58950;SDS011;44730;53.158;6.398;2023-04-10T04:53:21;46.45;;;33.83;;
58950;SDS011;44730;53.158;6.398;2023-04-10T04:55:47;49.05;;;33.75;;
58950;SDS011;44730;53.158;6.398;2023-04-10T04:58:12;48.20;;;34.33;;
58950;SDS011;44730;53.158;6.398;2023-04-10T05:00:38;50.20;;;34.75;;
58950;SDS011;44730;53.158;6.398;2023-04-10T05:03:04;46.65;;;33.03;;
58950;SDS011;44730;53.158;6.398;2023-04-10T05:05:30;46.47;;;32.97;;
58950;SDS011;44730;53.158;6.398;2023-04-10T05:07:56;44.60;;;31.98;;
58950;SDS011;44730;53.158;6.398;2023-04-10T05:10:22;43.13;;;32.05;;
58950;SDS011;44730;53.158;6.398;2023-04-10T05:12:47;45.83;;;31.48;;
58950;SDS011;44730;53.158;6.398;2023-04-10T05:15:13;44.78;;;31.42;;
58950;SDS011;44730;53.158;6.398;2023-04-10T05:17:39;44.42;;;32.20;;
58950;SDS011;44730;53.158;6.398;2023-04-10T05:20:05;41.55;;;29.92;;
58950;SDS011;44730;53.158;6.398;2023-04-10T05:22:31;43.63;;;31.05;;
58950;SDS011;44730;53.158;6.398;2023-04-10T05:24:57;42.45;;;29.90;;
58950;SDS011;44730;53.158;6.398;2023-04-10T05:27:23;43.63;;;28.88;;
58950;SDS011;44730;53.158;6.398;2023-04-10T05:29:50;39.53;;;29.10;;
58950;SDS011;44730;53.158;6.398;2023-04-10T05:32:16;39.50;;;28.27;;
58950;SDS011;44730;53.158;6.398;2023-04-10T05:34:43;37.75;;;28.13;;
58950;SDS011;44730;53.158;6.398;2023-04-10T05:37:08;38.92;;;28.63;;
58950;SDS011;44730;53.158;6.398;2023-04-10T05:39:36;40.55;;;28.33;;
58950;SDS011;44730;53.158;6.398;2023-04-10T05:42:02;41.55;;;29.50;;
58950;SDS011;44730;53.158;6.398;2023-04-10T05:44:29;40.45;;;27.80;;
58950;SDS011;44730;53.158;6.398;2023-04-10T05:46:55;42.90;;;29.25;;
58950;SDS011;44730;53.158;6.398;2023-04-10T05:49:20;37.88;;;27.40;;
58950;SDS011;44730;53.158;6.398;2023-04-10T05:51:46;38.03;;;27.02;;
58950;SDS011;44730;53.158;6.398;2023-04-10T05:54:17;41.20;;;28.98;;
58950;SDS011;44730;53.158;6.398;2023-04-10T05:56:43;37.13;;;26.90;;
58950;SDS011;44730;53.158;6.398;2023-04-10T05:59:09;40.30;;;27.20;;
58950;SDS011;44730;53.158;6.398;2023-04-10T06:01:36;38.75;;;26.85;;
58950;SDS011;44730;53.158;6.398;2023-04-10T06:04:02;36.60;;;26.67;;
58950;SDS011;44730;53.158;6.398;2023-04-10T06:06:27;34.63;;;25.95;;
58950;SDS011;44730;53.158;6.398;2023-04-10T06:08:53;36.33;;;26.50;;
58950;SDS011;44730;53.158;6.398;2023-04-10T06:11:19;38.15;;;27.65;;
58950;SDS011;44730;53.158;6.398;2023-04-10T06:13:45;38.50;;;26.80;;
58950;SDS011;44730;53.158;6.398;2023-04-10T06:16:11;37.35;;;27.60;;
58950;SDS011;44730;53.158;6.398;2023-04-10T06:18:39;35.28;;;26.05;;
58950;SDS011;44730;53.158;6.398;2023-04-10T06:21:05;35.55;;;25.65;;
58950;SDS011;44730;53.158;6.398;2023-04-10T06:23:31;34.35;;;26.17;;
58950;SDS011;44730;53.158;6.398;2023-04-10T06:25:57;33.50;;;24.45;;
58950;SDS011;44730;53.158;6.398;2023-04-10T06:28:23;38.35;;;26.00;;
58950;SDS011;44730;53.158;6.398;2023-04-10T06:30:48;37.50;;;26.00;;
58950;SDS011;44730;53.158;6.398;2023-04-10T06:33:14;35.17;;;25.33;;
58950;SDS011;44730;53.158;6.398;2023-04-10T06:35:40;34.08;;;24.88;;
58950;SDS011;44730;53.158;6.398;2023-04-10T06:38:06;34.83;;;25.48;;
58950;SDS011;44730;53.158;6.398;2023-04-10T06:40:32;32.55;;;23.98;;
58950;SDS011;44730;53.158;6.398;2023-04-10T06:43:01;31.17;;;23.90;;
58950;SDS011;44730;53.158;6.398;2023-04-10T06:45:26;32.50;;;22.55;;
58950;SDS011;44730;53.158;6.398;2023-04-10T06:47:52;33.75;;;24.65;;
58950;SDS011;44730;53.158;6.398;2023-04-10T06:50:18;32.80;;;23.95;;
58950;SDS011;44730;53.158;6.398;2023-04-10T06:52:44;34.03;;;24.40;;
58950;SDS011;44730;53.158;6.398;2023-04-10T06:55:12;32.10;;;22.45;;
58950;SDS011;44730;53.158;6.398;2023-04-10T06:57:38;34.30;;;22.83;;
58950;SDS011;44730;53.158;6.398;2023-04-10T07:00:07;29.88;;;22.17;;
58950;SDS011;44730;53.158;6.398;2023-04-10T07:02:34;31.88;;;22.83;;
58950;SDS011;44730;53.158;6.398;2023-04-10T07:04:59;31.25;;;22.58;;
58950;SDS011;44730;53.158;6.398;2023-04-10T07:07:25;28.65;;;21.45;;
58950;SDS011;44730;53.158;6.398;2023-04-10T07:09:52;29.48;;;22.30;;
58950;SDS011;44730;53.158;6.398;2023-04-10T07:12:18;27.85;;;20.70;;
58950;SDS011;44730;53.158;6.398;2023-04-10T07:14:44;29.48;;;21.33;;
58950;SDS011;44730;53.158;6.398;2023-04-10T07:17:10;28.35;;;21.58;;
58950;SDS011;44730;53.158;6.398;2023-04-10T07:19:36;29.35;;;21.80;;
58950;SDS011;44730;53.158;6.398;2023-04-10T07:22:02;33.40;;;22.20;;
58950;SDS011;44730;53.158;6.398;2023-04-10T07:24:28;28.58;;;22.13;;
58950;SDS011;44730;53.158;6.398;2023-04-10T07:26:55;31.70;;;23.95;;
58950;SDS011;44730;53.158;6.398;2023-04-10T07:29:21;33.03;;;24.55;;
58950;SDS011;44730;53.158;6.398;2023-04-10T07:31:47;31.30;;;24.88;;
58950;SDS011;44730;53.158;6.398;2023-04-10T07:34:13;31.23;;;24.52;;
58950;SDS011;44730;53.158;6.398;2023-04-10T07:36:39;30.17;;;22.92;;
58950;SDS011;44730;53.158;6.398;2023-04-10T07:39:04;29.27;;;23.95;;
58950;SDS011;44730;53.158;6.398;2023-04-10T07:41:30;32.17;;;24.25;;
58950;SDS011;44730;53.158;6.398;2023-04-10T07:43:56;30.05;;;22.85;;
58950;SDS011;44730;53.158;6.398;2023-04-10T07:46:22;30.30;;;23.73;;
58950;SDS011;44730;53.158;6.398;2023-04-10T07:48:47;31.92;;;23.70;;
58950;SDS011;44730;53.158;6.398;2023-04-10T07:51:14;29.85;;;23.20;;
58950;SDS011;44730;53.158;6.398;2023-04-10T07:53:39;29.65;;;22.45;;
58950;SDS011;44730;53.158;6.398;2023-04-10T07:56:06;26.42;;;23.55;;
58950;SDS011;44730;53.158;6.398;2023-04-10T07:58:32;28.98;;;23.98;;
58950;SDS011;44730;53.158;6.398;2023-04-10T08:00:58;26.48;;;22.63;;
58950;SDS011;44730;53.158;6.398;2023-04-10T08:03:24;28.55;;;23.95;;
58950;SDS011;44730;53.158;6.398;2023-04-10T08:05:50;27.55;;;23.08;;
58950;SDS011;44730;53.158;6.398;2023-04-10T08:08:16;25.70;;;22.67;;
58950;SDS011;44730;53.158;6.398;2023-04-10T08:10:41;26.70;;;22.92;;
58950;SDS011;44730;53.158;6.398;2023-04-10T08:13:07;26.75;;;22.90;;
58950;SDS011;44730;53.158;6.398;2023-04-10T08:15:33;25.20;;;22.15;;
58950;SDS011;44730;53.158;6.398;2023-04-10T08:17:59;23.80;;;21.17;;
58950;SDS011;44730;53.158;6.398;2023-04-10T08:20:26;25.02;;;22.05;;
58950;SDS011;44730;53.158;6.398;2023-04-10T08:22:52;24.08;;;21.38;;
58950;SDS011;44730;53.158;6.398;2023-04-10T08:25:18;25.45;;;21.52;;
58950;SDS011;44730;53.158;6.398;2023-04-10T08:27:44;25.35;;;20.67;;
58950;SDS011;44730;53.158;6.398;2023-04-10T08:30:10;24.25;;;20.95;;
58950;SDS011;44730;53.158;6.398;2023-04-10T08:32:37;23.60;;;20.38;;
58950;SDS011;44730;53.158;6.398;2023-04-10T08:35:03;22.60;;;20.05;;
58950;SDS011;44730;53.158;6.398;2023-04-10T08:37:29;21.45;;;19.15;;
58950;SDS011;44730;53.158;6.398;2023-04-10T08:39:54;22.02;;;19.33;;
58950;SDS011;44730;53.158;6.398;2023-04-10T08:42:20;22.33;;;19.50;;
58950;SDS011;44730;53.158;6.398;2023-04-10T08:44:47;21.27;;;18.98;;
58950;SDS011;44730;53.158;6.398;2023-04-10T08:47:14;20.48;;;18.27;;
58950;SDS011;44730;53.158;6.398;2023-04-10T08:49:52;20.33;;;18.13;;
58950;SDS011;44730;53.158;6.398;2023-04-10T08:52:20;21.63;;;18.38;;
58950;SDS011;44730;53.158;6.398;2023-04-10T08:54:55;20.48;;;17.92;;
58950;SDS011;44730;53.158;6.398;2023-04-10T08:57:22;18.63;;;16.63;;
58950;SDS011;44730;53.158;6.398;2023-04-10T08:59:51;20.30;;;16.67;;
58950;SDS011;44730;53.158;6.398;2023-04-10T09:02:17;19.98;;;16.88;;
58950;SDS011;44730;53.158;6.398;2023-04-10T09:04:45;21.63;;;16.67;;
58950;SDS011;44730;53.158;6.398;2023-04-10T09:07:13;19.20;;;16.83;;
58950;SDS011;44730;53.158;6.398;2023-04-10T09:09:38;18.27;;;16.00;;
58950;SDS011;44730;53.158;6.398;2023-04-10T09:12:05;18.80;;;16.80;;
58950;SDS011;44730;53.158;6.398;2023-04-10T09:14:32;19.63;;;17.08;;
58950;SDS011;44730;53.158;6.398;2023-04-10T09:17:10;16.90;;;15.15;;
58950;SDS011;44730;53.158;6.398;2023-04-10T09:19:42;16.67;;;14.95;;
58950;SDS011;44730;53.158;6.398;2023-04-10T09:22:09;17.17;;;15.15;;
58950;SDS011;44730;53.158;6.398;2023-04-10T09:24:39;17.08;;;15.25;;
58950;SDS011;44730;53.158;6.398;2023-04-10T09:27:06;17.75;;;15.68;;
58950;SDS011;44730;53.158;6.398;2023-04-10T09:32:09;18.20;;;15.38;;
58950;SDS011;44730;53.158;6.398;2023-04-10T09:37:36;16.52;;;14.68;;
58950;SDS011;44730;53.158;6.398;2023-04-10T09:40:02;15.02;;;13.43;;
58950;SDS011;44730;53.158;6.398;2023-04-10T09:42:33;14.60;;;12.98;;
58950;SDS011;44730;53.158;6.398;2023-04-10T09:45:04;14.38;;;12.68;;
58950;SDS011;44730;53.158;6.398;2023-04-10T09:47:31;14.57;;;12.75;;
58950;SDS011;44730;53.158;6.398;2023-04-10T09:49:57;13.90;;;12.20;;
58950;SDS011;44730;53.158;6.398;2023-04-10T09:52:28;14.05;;;11.85;;
58950;SDS011;44730;53.158;6.398;2023-04-10T09:54:56;15.00;;;12.18;;
58950;SDS011;44730;53.158;6.398;2023-04-10T09:57:27;14.23;;;11.98;;
58950;SDS011;44730;53.158;6.398;2023-04-10T09:59:56;12.68;;;11.38;;
58950;SDS011;44730;53.158;6.398;2023-04-10T10:02:35;41.70;;;14.90;;
58950;SDS011;44730;53.158;6.398;2023-04-10T10:05:03;11.35;;;10.18;;
58950;SDS011;44730;53.158;6.398;2023-04-10T10:07:29;12.20;;;9.57;;
58950;SDS011;44730;53.158;6.398;2023-04-10T10:09:56;11.45;;;9.77;;
58950;SDS011;44730;53.158;6.398;2023-04-10T10:12:56;10.50;;;9.40;;
58950;SDS011;44730;53.158;6.398;2023-04-10T10:15:25;11.38;;;10.18;;
58950;SDS011;44730;53.158;6.398;2023-04-10T10:20:37;11.85;;;9.32;;
58950;SDS011;44730;53.158;6.398;2023-04-10T10:23:05;10.27;;;9.27;;
58950;SDS011;44730;53.158;6.398;2023-04-10T10:25:33;10.55;;;9.05;;
58950;SDS011;44730;53.158;6.398;2023-04-10T10:28:01;10.30;;;9.20;;
58950;SDS011;44730;53.158;6.398;2023-04-10T10:30:30;9.52;;;8.60;;
58950;SDS011;44730;53.158;6.398;2023-04-10T10:32:57;12.02;;;8.43;;
58950;SDS011;44730;53.158;6.398;2023-04-10T10:35:24;9.95;;;8.68;;
58950;SDS011;44730;53.158;6.398;2023-04-10T10:37:52;11.90;;;9.63;;
58950;SDS011;44730;53.158;6.398;2023-04-10T10:40:21;11.63;;;8.63;;
58950;SDS011;44730;53.158;6.398;2023-04-10T10:43:02;9.30;;;8.27;;
58950;SDS011;44730;53.158;6.398;2023-04-10T10:45:58;10.38;;;8.73;;
58950;SDS011;44730;53.158;6.398;2023-04-10T10:48:32;9.98;;;8.40;;
58950;SDS011;44730;53.158;6.398;2023-04-10T10:50:59;15.65;;;8.73;;
58950;SDS011;44730;53.158;6.398;2023-04-10T10:53:35;10.13;;;8.68;;
58950;SDS011;44730;53.158;6.398;2023-04-10T10:56:39;8.77;;;7.88;;
58950;SDS011;44730;53.158;6.398;2023-04-10T10:58:58;9.15;;;8.20;;
58950;SDS011;44730;53.158;6.398;2023-04-10T11:01:24;8.95;;;7.97;;
58950;SDS011;44730;53.158;6.398;2023-04-10T11:03:51;11.10;;;8.02;;
58950;SDS011;44730;53.158;6.398;2023-04-10T11:06:18;8.45;;;7.05;;
58950;SDS011;44730;53.158;6.398;2023-04-10T11:08:45;8.23;;;7.38;;
58950;SDS011;44730;53.158;6.398;2023-04-10T11:11:21;8.52;;;7.15;;
58950;SDS011;44730;53.158;6.398;2023-04-10T11:16:17;8.23;;;7.32;;
58950;SDS011;44730;53.158;6.398;2023-04-10T11:21:11;8.57;;;7.65;;
58950;SDS011;44730;53.158;6.398;2023-04-10T11:24:20;8.00;;;6.82;;
58950;SDS011;44730;53.158;6.398;2023-04-10T11:31:42;7.43;;;6.43;;
58950;SDS011;44730;53.158;6.398;2023-04-10T11:34:08;7.38;;;6.43;;
58950;SDS011;44730;53.158;6.398;2023-04-10T11:36:37;7.55;;;6.75;;
58950;SDS011;44730;53.158;6.398;2023-04-10T11:39:04;6.97;;;6.28;;
58950;SDS011;44730;53.158;6.398;2023-04-10T11:41:40;6.73;;;6.03;;
58950;SDS011;44730;53.158;6.398;2023-04-10T11:44:08;8.65;;;5.95;;
58950;SDS011;44730;53.158;6.398;2023-04-10T11:46:36;7.78;;;5.93;;
58950;SDS011;44730;53.158;6.398;2023-04-10T11:49:03;7.30;;;5.97;;
58950;SDS011;44730;53.158;6.398;2023-04-10T11:51:30;7.25;;;5.95;;
58950;SDS011;44730;53.158;6.398;2023-04-10T11:54:10;8.45;;;5.78;;
58950;SDS011;44730;53.158;6.398;2023-04-10T11:56:38;6.60;;;5.43;;
58950;SDS011;44730;53.158;6.398;2023-04-10T11:59:08;6.68;;;5.85;;
58950;SDS011;44730;53.158;6.398;2023-04-10T12:01:38;8.07;;;5.53;;
58950;SDS011;44730;53.158;6.398;2023-04-10T12:04:17;5.93;;;5.10;;
58950;SDS011;44730;53.158;6.398;2023-04-10T12:06:51;6.07;;;4.80;;
58950;SDS011;44730;53.158;6.398;2023-04-10T12:09:18;5.93;;;5.30;;
58950;SDS011;44730;53.158;6.398;2023-04-10T12:11:55;5.60;;;4.82;;
58950;SDS011;44730;53.158;6.398;2023-04-10T12:14:28;6.07;;;5.40;;
58950;SDS011;44730;53.158;6.398;2023-04-10T12:16:55;6.18;;;5.10;;
58950;SDS011;44730;53.158;6.398;2023-04-10T12:19:21;6.47;;;5.20;;
58950;SDS011;44730;53.158;6.398;2023-04-10T12:21:47;6.22;;;4.80;;
58950;SDS011;44730;53.158;6.398;2023-04-10T12:24:39;5.88;;;5.28;;
58950;SDS011;44730;53.158;6.398;2023-04-10T12:27:05;5.70;;;5.18;;
58950;SDS011;44730;53.158;6.398;2023-04-10T12:29:31;6.00;;;5.00;;
58950;SDS011;44730;53.158;6.398;2023-04-10T12:31:56;5.05;;;4.53;;
58950;SDS011;44730;53.158;6.398;2023-04-10T12:34:22;5.50;;;4.93;;
58950;SDS011;44730;53.158;6.398;2023-04-10T12:36:52;5.43;;;4.68;;
58950;SDS011;44730;53.158;6.398;2023-04-10T12:39:23;6.32;;;5.28;;
58950;SDS011;44730;53.158;6.398;2023-04-10T12:41:49;5.85;;;4.95;;
58950;SDS011;44730;53.158;6.398;2023-04-10T12:44:16;5.60;;;4.80;;
58950;SDS011;44730;53.158;6.398;2023-04-10T12:46:43;6.65;;;4.57;;
58950;SDS011;44730;53.158;6.398;2023-04-10T12:49:14;6.85;;;4.80;;
58950;SDS011;44730;53.158;6.398;2023-04-10T12:51:50;8.07;;;5.03;;
58950;SDS011;44730;53.158;6.398;2023-04-10T12:57:01;8.85;;;5.13;;
58950;SDS011;44730;53.158;6.398;2023-04-10T12:59:28;6.18;;;4.90;;
58950;SDS011;44730;53.158;6.398;2023-04-10T13:01:55;5.50;;;4.93;;
58950;SDS011;44730;53.158;6.398;2023-04-10T13:04:21;6.80;;;5.15;;
58950;SDS011;44730;53.158;6.398;2023-04-10T13:06:48;5.60;;;5.00;;
58950;SDS011;44730;53.158;6.398;2023-04-10T13:09:16;9.18;;;5.05;;
58950;SDS011;44730;53.158;6.398;2023-04-10T13:11:42;5.75;;;5.15;;
58950;SDS011;44730;53.158;6.398;2023-04-10T13:14:08;6.18;;;4.88;;
58950;SDS011;44730;53.158;6.398;2023-04-10T13:16:35;6.10;;;4.93;;
58950;SDS011;44730;53.158;6.398;2023-04-10T13:19:01;5.93;;;4.75;;
58950;SDS011;44730;53.158;6.398;2023-04-10T13:21:27;8.23;;;5.22;;
58950;SDS011;44730;53.158;6.398;2023-04-10T13:23:53;6.53;;;4.85;;
58950;SDS011;44730;53.158;6.398;2023-04-10T13:26:20;5.50;;;4.82;;
58950;SDS011;44730;53.158;6.398;2023-04-10T13:28:46;7.63;;;5.90;;
58950;SDS011;44730;53.158;6.398;2023-04-10T13:31:12;7.13;;;5.32;;
58950;SDS011;44730;53.158;6.398;2023-04-10T13:33:40;6.03;;;5.43;;
58950;SDS011;44730;53.158;6.398;2023-04-10T13:36:15;9.70;;;5.40;;
58950;SDS011;44730;53.158;6.398;2023-04-10T13:38:40;5.72;;;5.13;;
58950;SDS011;44730;53.158;6.398;2023-04-10T13:41:06;8.25;;;5.60;;
58950;SDS011;44730;53.158;6.398;2023-04-10T13:43:32;8.13;;;5.35;;
58950;SDS011;44730;53.158;6.398;2023-04-10T13:45:58;6.22;;;5.38;;
58950;SDS011;44730;53.158;6.398;2023-04-10T13:48:23;6.63;;;5.65;;
58950;SDS011;44730;53.158;6.398;2023-04-10T13:50:49;5.90;;;5.20;;
58950;SDS011;44730;53.158;6.398;2023-04-10T13:53:15;7.00;;;5.57;;
58950;SDS011;44730;53.158;6.398;2023-04-10T13:55:40;7.38;;;5.78;;
58950;SDS011;44730;53.158;6.398;2023-04-10T13:58:10;6.20;;;5.60;;
58950;SDS011;44730;53.158;6.398;2023-04-10T14:00:37;6.22;;;5.20;;
58950;SDS011;44730;53.158;6.398;2023-04-10T14:03:04;7.72;;;5.32;;
58950;SDS011;44730;53.158;6.398;2023-04-10T14:05:33;7.65;;;4.88;;
58950;SDS011;44730;53.158;6.398;2023-04-10T14:07:59;5.85;;;5.18;;
58950;SDS011;44730;53.158;6.398;2023-04-10T14:10:25;7.35;;;5.45;;
58950;SDS011;44730;53.158;6.398;2023-04-10T14:12:51;8.38;;;5.63;;
58950;SDS011;44730;53.158;6.398;2023-04-10T14:15:16;7.50;;;5.20;;
58950;SDS011;44730;53.158;6.398;2023-04-10T14:17:42;8.38;;;5.32;;
58950;SDS011;44730;53.158;6.398;2023-04-10T14:20:08;7.90;;;5.80;;
58950;SDS011;44730;53.158;6.398;2023-04-10T14:22:37;7.30;;;5.13;;
58950;SDS011;44730;53.158;6.398;2023-04-10T14:25:03;6.28;;;5.03;;
58950;SDS011;44730;53.158;6.398;2023-04-10T14:27:29;6.05;;;5.35;;
58950;SDS011;44730;53.158;6.398;2023-04-10T14:29:55;5.20;;;4.47;;
58950;SDS011;44730;53.158;6.398;2023-04-10T14:32:21;5.72;;;4.82;;
58950;SDS011;44730;53.158;6.398;2023-04-10T14:34:47;6.13;;;4.63;;
58950;SDS011;44730;53.158;6.398;2023-04-10T14:37:13;5.65;;;4.70;;
58950;SDS011;44730;53.158;6.398;2023-04-10T14:39:39;6.47;;;5.00;;
58950;SDS011;44730;53.158;6.398;2023-04-10T14:42:05;7.80;;;5.15;;
58950;SDS011;44730;53.158;6.398;2023-04-10T14:44:30;5.70;;;4.80;;
58950;SDS011;44730;53.158;6.398;2023-04-10T14:46:56;8.43;;;4.80;;
58950;SDS011;44730;53.158;6.398;2023-04-10T14:49:22;6.57;;;4.45;;
58950;SDS011;44730;53.158;6.398;2023-04-10T14:51:48;5.65;;;4.57;;
58950;SDS011;44730;53.158;6.398;2023-04-10T14:54:14;6.40;;;5.18;;
58950;SDS011;44730;53.158;6.398;2023-04-10T14:56:45;10.32;;;5.57;;
58950;SDS011;44730;53.158;6.398;2023-04-10T14:59:12;6.25;;;5.07;;
58950;SDS011;44730;53.158;6.398;2023-04-10T15:01:38;6.25;;;5.50;;
58950;SDS011;44730;53.158;6.398;2023-04-10T15:04:03;6.55;;;4.70;;
58950;SDS011;44730;53.158;6.398;2023-04-10T15:06:31;7.38;;;5.15;;